Main page
METAR-TAF:

METAR-TAF

Airports :

Linz Airport

Linz, Austria

latitude: 48-14N, longitude: 014-11E, elevation: 298 m

Current weather observation

The report was made 33 minutes ago, at 06:50 UTC
Wind 3 kt from the South
Temperature 4°C
Humidity 65%
Pressure 1014 hPa
Visibility 10 km or more
Few clouds at a height of 8000 ft

METAR: LOWL 030650Z 18003KT 9999 FEW080 04/M02 Q1014 NOSIG

Time: 09:23 (07:23 UTC)

Forecast

The report was made 2 hours and 8 minutes ago, at 05:15 UTC
Forecast valid from 03 at 06 UTC to 04 at 06 UTC
Wind 4 kt from the West
Visibility 10 km or more
Scattered clouds at a height of 8000 ft
Becoming
from 03 at 08 UTC to 03 at 10 UTC
Wind 12 kt from the West/Northwest
Becoming
from 03 at 16 UTC to 03 at 18 UTC
Wind 3 kt from the West/Northwest
Broken clouds at a height of 7000 ft

TAF: LOWL 030515Z 0306/0406 27004KT 9999 SCT080 TX10/0313Z TN02/0306Z BECMG 0308/0310 29012KT BECMG 0316/0318 30003KT BKN070

Weather observations and forecasts of more than 4000 airports (METAR and TAF reports).

The available stations are represented by yellow and red dots on the map.

Hover mouse over dot to see the name of the station.

Then click to see weather observations and forecasts.

To change the map : click on the green buttons with a black cross to zoom in, on the green button with a dash to zoom out, or on the green arrows for adjacent maps.


METAR-TAF: